Time;durP1;ratioP1;P1;durP2;ratioP2;P2;SDS_P1;SDS_P2;PMS_P1;PMS_P2;Temp;Humidity;BMP_temperature;BMP_pressure;BME280_temperature;BME280_humidity;BME280_pressure;Samples;Min_cycle;Max_cycle;Signal;HPM_P1;HPM_P2
2022/10/09 00:02:14;;;;;;;9.52;2.10;;;20.30;56.90;;;;;;6183752;28;20053;-74
2022/10/09 00:05:15;;;;;;;9.35;2.53;;;20.30;57.00;;;;;;6201192;28;20058;-74
2022/10/09 00:08:16;;;;;;;7.90;2.80;;;20.30;57.10;;;;;;6199580;28;20070;-74
2022/10/09 00:11:23;;;;;;;63.17;21.38;;;20.30;57.20;;;;;;6198507;28;20061;-73
2022/10/09 00:14:24;;;;;;;16.10;6.80;;;20.30;57.30;;;;;;6181259;28;20060;-73
2022/10/09 00:17:25;;;;;;;8.98;2.30;;;20.30;57.30;;;;;;6198739;28;20045;-73
2022/10/09 00:20:26;;;;;;;6.22;2.83;;;20.30;57.30;;;;;;6164676;28;20035;-73
2022/10/09 00:23:27;;;;;;;5.13;2.50;;;20.30;57.30;;;;;;6181586;28;20043;-73
2022/10/09 00:26:28;;;;;;;8.05;2.40;;;20.30;57.20;;;;;;6180587;28;20521;-73
2022/10/09 00:29:29;;;;;;;7.45;2.38;;;20.30;57.30;;;;;;6200786;28;20358;-73
2022/10/09 00:32:30;;;;;;;12.90;2.50;;;20.30;57.30;;;;;;6200357;28;20404;-73
2022/10/09 00:35:32;;;;;;;7.60;2.65;;;20.30;57.40;;;;;;6183420;28;20041;-73
2022/10/09 00:38:33;;;;;;;7.45;2.10;;;20.30;57.40;;;;;;6180311;28;20027;-73
2022/10/09 00:41:34;;;;;;;7.35;2.63;;;20.20;57.40;;;;;;6168539;28;20088;-73
2022/10/09 00:44:47;;;;;;;5.43;1.83;;;20.20;57.40;;;;;;6183413;28;20371;-73
2022/10/09 00:47:54;;;;;;;4.70;2.22;;;20.20;57.20;;;;;;6198923;28;20124;-73
2022/10/09 00:50:59;;;;;;;3.92;1.70;;;20.10;57.10;;;;;;6176172;28;20045;-73
2022/10/09 00:54:03;;;;;;;9.95;2.40;;;20.10;57.00;;;;;;6181109;28;20061;-73
2022/10/09 00:57:05;;;;;;;8.25;2.42;;;20.10;57.00;;;;;;6181393;28;20030;-73
2022/10/09 01:00:10;;;;;;;5.85;2.08;;;20.10;57.00;;;;;;6196815;28;20046;-73
2022/10/09 01:03:11;;;;;;;15.85;2.13;;;20.00;56.90;;;;;;6196595;28;20062;-73
2022/10/09 01:06:55;;;;;;;9.00;1.65;;;20.00;56.80;;;;;;6195992;28;20026;-73
2022/10/09 01:10:06;;;;;;;4.95;1.58;;;19.80;56.70;;;;;;6073062;29;20505;-74
2022/10/09 01:13:23;;;;;;;2.97;1.90;;;19.80;56.70;;;;;;6074599;29;20051;-72
2022/10/09 01:16:28;;;;;;;15.75;1.98;;;19.80;56.60;;;;;;6088023;29;20041;-73
2022/10/09 01:20:02;;;;;;;3.33;1.63;;;19.70;56.60;;;;;;6075490;29;20032;-73
2022/10/09 01:23:42;;;;;;;6.00;1.98;;;19.60;56.50;;;;;;6068430;29;20051;-73
2022/10/09 01:27:04;;;;;;;7.10;1.90;;;19.60;56.60;;;;;;6081037;29;20924;-72
2022/10/09 01:30:09;;;;;;;5.05;1.45;;;19.50;56.60;;;;;;6094820;29;20040;-73
2022/10/09 01:33:10;;;;;;;6.03;1.70;;;19.50;56.70;;;;;;6094736;29;20035;-73
2022/10/09 01:36:13;;;;;;;10.00;1.90;;;19.50;56.80;;;;;;6087032;29;20041;-73
2022/10/09 01:39:19;;;;;;;4.30;1.52;;;19.50;56.80;;;;;;6059474;29;20043;-73
2022/10/09 01:42:23;;;;;;;5.68;1.45;;;19.40;56.70;;;;;;6090067;29;20055;-73
2022/10/09 01:45:24;;;;;;;5.25;1.60;;;19.40;56.70;;;;;;6081666;28;20111;-73
2022/10/09 01:48:26;;;;;;;9.00;1.52;;;19.40;56.70;;;;;;6195933;28;20038;-73
2022/10/09 01:51:38;;;;;;;3.50;1.30;;;19.40;56.70;;;;;;6178296;28;20067;-73
2022/10/09 01:54:54;;;;;;;8.02;1.83;;;19.30;56.70;;;;;;6162179;28;20053;-73
2022/10/09 01:58:08;;;;;;;5.97;1.55;;;19.30;56.70;;;;;;6178244;28;20038;-73
2022/10/09 02:01:43;;;;;;;9.25;1.83;;;19.30;56.80;;;;;;6177390;28;20126;-73
2022/10/09 02:04:45;;;;;;;6.70;1.50;;;19.30;56.80;;;;;;6104131;29;20051;-73
2022/10/09 02:07:46;;;;;;;4.78;1.70;;;19.30;56.70;;;;;;6103877;29;20036;-73
2022/10/09 02:10:53;;;;;;;6.95;1.63;;;19.30;56.70;;;;;;6122189;29;20048;-73
2022/10/09 02:13:55;;;;;;;10.32;1.83;;;19.30;57.30;;;;;;6106035;29;20126;-73
2022/10/09 02:17:03;;;;;;;6.13;1.65;;;19.20;56.80;;;;;;6104525;29;20035;-73
2022/10/09 02:20:13;;;;;;;7.70;1.73;;;19.20;56.90;;;;;;6116830;29;20043;-73
2022/10/09 02:23:15;;;;;;;3.67;1.80;;;19.20;56.80;;;;;;6117672;29;20047;-73
2022/10/09 02:26:18;;;;;;;8.00;1.55;;;19.20;56.90;;;;;;6101565;29;20027;-74
2022/10/09 02:29:19;;;;;;;7.32;1.70;;;19.20;56.90;;;;;;6117694;29;20107;-73
2022/10/09 02:32:21;;;;;;;13.05;1.83;;;19.10;56.90;;;;;;6101586;29;20039;-74
2022/10/09 02:35:22;;;;;;;3.55;1.52;;;19.10;57.00;;;;;;6120078;29;20557;-73
2022/10/09 02:38:23;;;;;;;6.13;1.75;;;19.10;57.00;;;;;;6105240;29;20032;-73
2022/10/09 02:41:25;;;;;;;3.15;1.35;;;19.10;57.00;;;;;;6192023;28;20036;-73
2022/10/09 02:44:27;;;;;;;6.20;1.58;;;19.10;57.00;;;;;;6178374;28;20147;-73
2022/10/09 02:47:27;;;;;;;6.00;1.60;;;19.10;56.90;;;;;;6178221;28;20042;-73
2022/10/09 02:50:28;;;;;;;3.85;1.20;;;19.00;57.00;;;;;;6177104;28;20077;-73
2022/10/09 02:53:31;;;;;;;9.07;2.30;;;19.00;57.00;;;;;;6176472;28;20047;-73
2022/10/09 02:56:32;;;;;;;3.75;1.80;;;19.00;57.00;;;;;;6178208;28;20038;-73
2022/10/09 02:59:33;;;;;;;6.43;1.73;;;19.00;57.10;;;;;;6178217;28;20035;-73
2022/10/09 03:02:34;;;;;;;5.13;1.35;;;19.00;57.10;;;;;;6194891;28;20125;-72
2022/10/09 03:05:35;;;;;;;1.80;1.10;;;19.00;57.10;;;;;;6194689;28;20050;-72
2022/10/09 03:08:38;;;;;;;5.35;1.50;;;19.00;57.20;;;;;;6152026;28;20050;-72
2022/10/09 03:11:39;;;;;;;2.85;1.17;;;19.00;57.20;;;;;;6176631;28;20069;-72
2022/10/09 03:14:40;;;;;;;7.88;1.65;;;18.90;57.20;;;;;;6192229;28;20054;-72
2022/10/09 03:17:41;;;;;;;3.33;1.42;;;19.00;57.30;;;;;;6177475;28;20069;-73
2022/10/09 03:20:42;;;;;;;4.70;1.45;;;19.00;57.30;;;;;;6198394;28;20042;-73
2022/10/09 03:23:44;;;;;;;4.18;1.15;;;19.00;57.30;;;;;;6180918;28;20146;-73
2022/10/09 03:26:45;;;;;;;9.10;1.50;;;19.00;57.20;;;;;;6198530;28;20061;-73
2022/10/09 03:29:46;;;;;;;7.82;1.70;;;19.00;57.30;;;;;;6182585;28;20035;-73
2022/10/09 03:32:47;;;;;;;5.00;1.27;;;19.00;57.30;;;;;;6173741;28;20399;-73
2022/10/09 03:35:49;;;;;;;14.68;1.75;;;19.00;57.40;;;;;;6199521;28;20065;-73
2022/10/09 03:38:50;;;;;;;4.63;1.73;;;18.90;57.40;;;;;;6200922;28;20042;-72
2022/10/09 03:41:51;;;;;;;11.48;1.52;;;18.90;57.50;;;;;;6181828;28;20050;-73
2022/10/09 03:44:52;;;;;;;4.50;1.63;;;18.90;57.50;;;;;;6190865;28;20042;-73
2022/10/09 03:47:53;;;;;;;4.32;1.35;;;18.80;57.50;;;;;;6183388;28;20061;-73
2022/10/09 03:50:54;;;;;;;10.57;1.60;;;18.80;57.50;;;;;;6200146;28;20852;-73
2022/10/09 03:53:55;;;;;;;3.50;1.42;;;18.80;57.60;;;;;;6183353;28;20031;-73
2022/10/09 03:56:56;;;;;;;3.47;1.52;;;18.80;57.70;;;;;;6200181;28;20038;-73
2022/10/09 03:59:57;;;;;;;7.95;1.65;;;18.70;58.40;;;;;;6193845;28;20352;-73
2022/10/09 04:02:58;;;;;;;3.83;1.27;;;18.70;57.80;;;;;;6197164;28;20030;-74
2022/10/09 04:06:00;;;;;;;5.15;1.65;;;18.70;57.90;;;;;;6199920;28;20034;-73
2022/10/09 04:09:01;;;;;;;3.67;1.30;;;18.60;57.90;;;;;;6198142;28;20426;-73
2022/10/09 04:12:02;;;;;;;4.15;1.42;;;18.60;57.90;;;;;;6181452;28;20069;-73
2022/10/09 04:15:04;;;;;;;6.53;1.55;;;18.70;57.90;;;;;;6197747;28;20042;-73
2022/10/09 04:18:05;;;;;;;4.80;1.10;;;18.60;57.90;;;;;;6197446;28;20652;-73
2022/10/09 04:21:06;;;;;;;2.95;1.13;;;18.60;57.80;;;;;;6197557;28;20026;-73
2022/10/09 04:24:07;;;;;;;6.30;1.50;;;18.70;57.90;;;;;;6197484;28;20038;-73
2022/10/09 04:27:08;;;;;;;2.85;1.40;;;18.60;57.80;;;;;;6180376;28;20364;-73
2022/10/09 04:30:10;;;;;;;7.78;1.65;;;18.60;57.80;;;;;;6196626;28;20027;-72
2022/10/09 04:33:11;;;;;;;8.30;1.60;;;18.60;57.80;;;;;;6198764;28;20034;-72
2022/10/09 04:36:12;;;;;;;10.60;1.45;;;18.60;57.80;;;;;;6178193;28;20034;-72
2022/10/09 04:39:13;;;;;;;4.60;1.50;;;18.50;57.80;;;;;;6198755;28;20125;-72
2022/10/09 04:42:14;;;;;;;9.93;1.48;;;18.60;57.80;;;;;;6198649;28;20034;-72
2022/10/09 04:45:15;;;;;;;6.43;1.60;;;18.60;57.80;;;;;;6181654;28;20038;-72
2022/10/09 04:48:16;;;;;;;2.60;1.38;;;18.60;57.80;;;;;;6198983;28;20042;-73
2022/10/09 04:51:17;;;;;;;12.13;1.77;;;18.60;57.80;;;;;;6198312;28;20089;-72
2022/10/09 04:54:18;;;;;;;4.53;1.45;;;18.60;57.80;;;;;;6182105;28;20044;-72
2022/10/09 04:57:19;;;;;;;4.82;1.75;;;18.60;57.80;;;;;;6198944;28;20474;-72
2022/10/09 05:00:21;;;;;;;3.50;1.30;;;18.60;57.80;;;;;;6181429;28;20038;-73
2022/10/09 05:03:22;;;;;;;5.00;1.67;;;18.60;57.80;;;;;;6198039;28;20041;-73
2022/10/09 05:06:24;;;;;;;4.47;1.70;;;18.60;57.80;;;;;;6196815;28;20344;-73
2022/10/09 05:09:25;;;;;;;6.80;1.90;;;18.60;57.80;;;;;;6196705;28;20058;-73
2022/10/09 05:12:26;;;;;;;7.03;1.65;;;18.60;57.80;;;;;;6192532;28;20555;-73
2022/10/09 05:15:27;;;;;;;8.23;1.50;;;18.60;57.90;;;;;;6194596;28;20130;-72
2022/10/09 05:18:28;;;;;;;6.97;1.50;;;18.60;58.00;;;;;;6178995;28;20038;-73
2022/10/09 05:21:30;;;;;;;3.05;1.10;;;18.60;58.00;;;;;;6177306;28;20038;-73
2022/10/09 05:24:31;;;;;;;10.10;1.88;;;18.60;58.10;;;;;;6196369;28;20046;-73
2022/10/09 05:27:32;;;;;;;9.73;2.03;;;18.60;58.10;;;;;;6198090;28;20126;-73
2022/10/09 05:30:33;;;;;;;4.55;1.35;;;18.60;58.10;;;;;;6198174;28;20472;-73
2022/10/09 05:33:34;;;;;;;6.25;1.27;;;18.60;58.10;;;;;;6181127;28;20133;-73
2022/10/09 05:36:35;;;;;;;4.53;1.75;;;18.60;58.10;;;;;;6180133;28;20104;-73
2022/10/09 05:39:38;;;;;;;10.57;1.90;;;18.60;58.10;;;;;;6198019;28;20051;-73
2022/10/09 05:42:39;;;;;;;7.68;1.60;;;18.60;58.10;;;;;;6197266;28;20038;-73
2022/10/09 05:45:40;;;;;;;6.13;1.85;;;18.60;58.20;;;;;;6197531;28;20046;-74
2022/10/09 05:48:45;;;;;;;9.30;1.63;;;18.60;58.20;;;;;;6197451;28;20046;-73
2022/10/09 05:51:47;;;;;;;7.63;1.50;;;18.60;58.90;;;;;;6179920;28;20407;-73
2022/10/09 05:54:49;;;;;;;6.10;1.55;;;18.60;58.30;;;;;;6193084;28;20459;-73
2022/10/09 05:57:52;;;;;;;8.18;1.52;;;18.50;58.30;;;;;;6197428;28;20141;-73
2022/10/09 06:00:58;;;;;;;10.27;2.03;;;18.50;58.40;;;;;;6197621;28;20041;-74
2022/10/09 06:04:00;;;;;;;3.63;1.73;;;18.50;58.50;;;;;;6196200;28;20046;-73
2022/10/09 06:07:02;;;;;;;7.70;1.80;;;18.50;58.50;;;;;;6177870;28;20049;-73
2022/10/09 06:10:04;;;;;;;7.85;2.15;;;18.50;58.50;;;;;;6185597;28;20039;-73
2022/10/09 06:13:05;;;;;;;10.38;1.98;;;18.50;58.60;;;;;;6192000;28;20697;-73
2022/10/09 06:16:07;;;;;;;5.18;1.77;;;18.50;58.50;;;;;;6195932;28;20162;-73
2022/10/09 06:19:11;;;;;;;4.57;2.28;;;18.50;58.50;;;;;;6178749;28;20708;-72
2022/10/09 06:22:12;;;;;;;9.27;1.75;;;18.50;58.50;;;;;;6195333;28;20038;-72
2022/10/09 06:25:13;;;;;;;3.65;2.08;;;18.50;58.50;;;;;;6197940;28;20051;-72
2022/10/09 06:28:14;;;;;;;10.32;1.98;;;18.50;58.40;;;;;;6191508;28;20353;-72
2022/10/09 06:31:20;;;;;;;5.65;1.67;;;18.50;58.40;;;;;;6188965;28;20158;-72
2022/10/09 06:34:22;;;;;;;11.07;2.20;;;18.50;58.40;;;;;;6172010;28;20034;-73
2022/10/09 06:37:23;;;;;;;10.50;1.90;;;18.50;58.40;;;;;;6154949;28;20031;-72
2022/10/09 06:40:24;;;;;;;15.98;1.80;;;18.60;58.40;;;;;;6170246;28;20418;-73
2022/10/09 06:43:25;;;;;;;5.57;2.55;;;18.60;58.40;;;;;;6188672;28;20034;-72
2022/10/09 06:46:39;;;;;;;8.35;2.15;;;18.60;58.30;;;;;;6172176;28;20129;-80
2022/10/09 06:49:40;;;;;;;4.40;1.50;;;18.60;58.30;;;;;;6170962;28;20106;-74
2022/10/09 06:52:41;;;;;;;4.90;1.75;;;18.70;58.20;;;;;;6188185;28;20121;-74
2022/10/09 06:55:53;;;;;;;6.75;1.98;;;18.80;58.00;;;;;;6187685;28;20035;-74
2022/10/09 06:58:54;;;;;;;12.00;2.08;;;18.80;57.90;;;;;;6184647;28;20030;-74
2022/10/09 07:01:55;;;;;;;6.65;2.30;;;18.90;57.80;;;;;;6169786;28;20026;-73
2022/10/09 07:04:56;;;;;;;10.73;2.15;;;19.00;57.80;;;;;;6186670;28;20038;-73
2022/10/09 07:07:57;;;;;;;7.20;1.80;;;18.90;57.60;;;;;;6156171;28;20047;-73
2022/10/09 07:10:58;;;;;;;5.90;1.77;;;19.00;57.60;;;;;;6178335;28;20039;-73
2022/10/09 07:14:02;;;;;;;8.43;2.10;;;19.20;57.60;;;;;;6171738;28;20303;-72
2022/10/09 07:17:04;;;;;;;7.47;2.33;;;19.20;57.40;;;;;;6189313;28;20186;-72
2022/10/09 07:20:05;;;;;;;10.60;2.00;;;19.20;57.20;;;;;;6187688;28;20026;-71
2022/10/09 07:23:06;;;;;;;3.92;2.13;;;19.30;57.20;;;;;;6167440;28;20168;-72
2022/10/09 07:26:15;;;;;;;5.72;2.17;;;19.40;57.10;;;;;;6170844;28;20045;-72
2022/10/09 07:29:18;;;;;;;4.90;1.65;;;19.40;57.00;;;;;;6187524;28;20100;-73
2022/10/09 07:32:19;;;;;;;6.90;1.58;;;19.50;56.90;;;;;;6153012;28;20108;-75
2022/10/09 07:35:21;;;;;;;5.28;1.85;;;19.60;56.70;;;;;;6173129;28;20050;-74
2022/10/09 07:38:23;;;;;;;7.75;2.00;;;19.70;56.60;;;;;;6192340;28;20030;-73
2022/10/09 07:41:26;;;;;;;4.00;2.38;;;19.70;56.50;;;;;;6187255;28;20035;-73
2022/10/09 07:44:27;;;;;;;10.82;2.50;;;19.70;56.60;;;;;;6176574;28;20097;-73
2022/10/09 07:47:28;;;;;;;8.68;2.33;;;19.70;56.70;;;;;;6179922;28;20367;-75
2022/10/09 07:50:30;;;;;;;9.07;2.15;;;19.70;56.80;;;;;;6169297;28;20039;-75
2022/10/09 07:53:30;;;;;;;5.65;2.17;;;19.80;56.90;;;;;;6188052;28;20069;-75
2022/10/09 07:56:34;;;;;;;8.63;2.50;;;19.80;56.90;;;;;;6175304;28;20030;-75
2022/10/09 07:59:35;;;;;;;8.32;2.70;;;19.80;56.90;;;;;;6168109;28;20431;-74
2022/10/09 08:02:36;;;;;;;14.40;2.50;;;19.90;57.10;;;;;;6152790;28;20190;-77
2022/10/09 08:05:37;;;;;;;9.98;2.20;;;20.00;57.00;;;;;;6190713;28;20050;-74
2022/10/09 08:08:39;;;;;;;12.63;2.40;;;20.10;57.00;;;;;;6191024;28;20049;-75
2022/10/09 08:11:40;;;;;;;4.25;2.33;;;20.20;57.00;;;;;;6188999;28;20506;-75
2022/10/09 08:14:41;;;;;;;9.32;2.95;;;20.20;56.90;;;;;;6191622;28;20603;-75
2022/10/09 08:17:42;;;;;;;14.00;2.85;;;20.20;56.90;;;;;;6176813;28;20042;-74
2022/10/09 08:20:43;;;;;;;3.65;2.20;;;20.20;57.10;;;;;;6191344;28;20706;-74
2022/10/09 08:23:45;;;;;;;11.43;2.72;;;20.20;56.90;;;;;;6162033;28;20464;-74
2022/10/09 08:26:46;;;;;;;17.50;2.58;;;20.20;56.80;;;;;;6194307;28;20052;-74
2022/10/09 08:29:47;;;;;;;7.70;2.58;;;20.20;56.80;;;;;;6174398;28;20049;-74
2022/10/09 08:32:48;;;;;;;6.18;2.70;;;20.30;56.70;;;;;;6156906;28;20038;-73
2022/10/09 08:35:50;;;;;;;12.77;2.58;;;20.30;56.50;;;;;;6191914;28;20046;-73
2022/10/09 08:38:51;;;;;;;8.63;2.70;;;20.40;56.50;;;;;;6171402;28;20049;-74
2022/10/09 08:41:54;;;;;;;12.25;3.95;;;20.40;56.40;;;;;;6159408;28;20069;-74
2022/10/09 08:44:55;;;;;;;6.53;3.08;;;20.40;56.30;;;;;;6194160;28;20054;-73
2022/10/09 08:48:01;;;;;;;4.68;2.60;;;20.50;56.20;;;;;;6155303;28;20102;-75
2022/10/09 08:51:08;;;;;;;7.10;2.72;;;20.70;56.10;;;;;;6191844;28;20035;-73
2022/10/09 08:54:37;;;;;;;7.07;2.63;;;20.70;55.90;;;;;;6168348;28;20034;-73
2022/10/09 08:57:38;;;;;;;8.38;3.70;;;20.70;55.70;;;;;;6184746;28;20444;-73
2022/10/09 09:00:44;;;;;;;14.73;5.47;;;20.80;55.60;;;;;;6190848;28;20490;-73
2022/10/09 09:04:03;;;;;;;17.10;7.07;;;20.80;55.60;;;;;;6191489;28;20053;-72
2022/10/09 09:07:11;;;;;;;;;;;20.80;55.50;;;;;;6194053;28;20030;-73
2022/10/09 09:10:34;;;;;;;7.78;3.15;;;20.80;55.70;;;;;;6166947;28;19922;-73
2022/10/09 09:14:04;;;;;;;18.92;6.43;;;20.80;55.70;;;;;;6169880;28;20061;-73
2022/10/09 09:17:23;;;;;;;9.25;4.18;;;20.70;55.80;;;;;;6153728;28;20043;-73
2022/10/09 09:20:32;;;;;;;7.57;3.00;;;20.80;55.90;;;;;;6158269;28;20038;-72
2022/10/09 09:23:39;;;;;;;10.02;3.63;;;20.80;55.90;;;;;;6164251;28;20038;-72
2022/10/09 09:26:44;;;;;;;8.13;3.22;;;20.80;55.90;;;;;;6161718;28;20054;-73
2022/10/09 09:29:55;;;;;;;18.33;5.95;;;20.90;55.90;;;;;;6160893;28;20035;-72
2022/10/09 09:33:17;;;;;;;7.45;3.95;;;20.90;55.70;;;;;;6162325;28;20039;-74
2022/10/09 09:36:37;;;;;;;12.00;3.35;;;20.90;55.80;;;;;;6158160;28;20038;-73
2022/10/09 09:39:39;;;;;;;7.95;2.97;;;20.80;55.80;;;;;;6160593;28;20353;-73
2022/10/09 09:42:41;;;;;;;5.07;3.03;;;20.80;55.90;;;;;;6163317;28;20043;-73
2022/10/09 09:45:43;;;;;;;7.75;3.28;;;20.90;55.80;;;;;;6161558;28;20045;-73
2022/10/09 09:48:47;;;;;;;12.77;4.80;;;20.90;55.80;;;;;;6160380;28;20042;-74
2022/10/09 09:51:49;;;;;;;13.38;5.60;;;20.90;55.80;;;;;;6161837;28;20366;-74
2022/10/09 09:54:50;;;;;;;15.38;6.18;;;21.00;55.80;;;;;;6162669;28;20059;-73
2022/10/09 09:57:57;;;;;;;8.73;3.55;;;21.20;55.60;;;;;;6141544;28;20047;-73
2022/10/09 10:01:01;;;;;;;7.95;4.00;;;21.20;55.10;;;;;;6146409;28;20047;-74
2022/10/09 10:04:03;;;;;;;9.52;4.15;;;21.30;55.00;;;;;;6144635;28;20515;-74
2022/10/09 10:07:04;;;;;;;13.85;4.97;;;21.50;54.90;;;;;;6162607;28;20049;-73
2022/10/09 10:10:17;;;;;;;13.55;5.57;;;21.70;54.60;;;;;;6174490;28;20042;-74
2022/10/09 10:13:27;;;;;;;12.60;3.83;;;21.80;54.20;;;;;;6180098;28;20034;-73
2022/10/09 10:16:29;;;;;;;11.57;4.40;;;22.00;53.70;;;;;;6161216;28;20459;-74
2022/10/09 10:19:37;;;;;;;12.18;5.22;;;22.10;53.40;;;;;;6165077;28;20038;-73
2022/10/09 10:22:38;;;;;;;7.85;3.65;;;22.10;53.20;;;;;;6180574;28;20034;-73
2022/10/09 10:25:39;;;;;;;14.55;4.22;;;22.20;52.90;;;;;;6162209;28;20050;-73
2022/10/09 10:28:57;;;;;;;13.45;5.20;;;22.30;52.90;;;;;;6182036;28;20038;-74
2022/10/09 10:32:16;;;;;;;25.23;9.23;;;22.40;52.60;;;;;;6161367;28;20039;-73
2022/10/09 10:35:19;;;;;;;25.63;10.35;;;22.50;52.30;;;;;;6177396;28;20130;-73
2022/10/09 10:38:48;;;;;;;21.02;7.55;;;22.60;52.20;;;;;;6168136;28;20093;-73
2022/10/09 10:41:51;;;;;;;13.03;6.63;;;22.80;52.00;;;;;;6167142;28;20073;-73
2022/10/09 10:45:07;;;;;;;17.58;5.32;;;23.00;51.70;;;;;;6149063;28;20351;-73
2022/10/09 10:48:36;;;;;;;12.30;4.97;;;23.10;51.50;;;;;;6185328;28;20035;-73
2022/10/09 10:51:52;;;;;;;18.25;6.10;;;23.20;50.90;;;;;;6155809;28;20050;-74
2022/10/09 10:55:14;;;;;;;13.43;5.60;;;23.10;50.70;;;;;;6151209;28;20471;-73
2022/10/09 10:58:24;;;;;;;12.85;4.38;;;23.10;50.90;;;;;;6160254;28;20125;-73
2022/10/09 11:01:40;;;;;;;16.92;7.30;;;23.10;50.60;;;;;;6147840;28;20031;-73
2022/10/09 11:05:12;;;;;;;11.32;4.07;;;23.10;50.60;;;;;;6167398;28;20042;-74
2022/10/09 11:08:39;;;;;;;15.43;4.43;;;23.00;50.60;;;;;;6161221;28;20089;-72
2022/10/09 11:12:08;;;;;;;8.80;3.65;;;22.90;50.80;;;;;;6136751;28;20047;-74
2022/10/09 11:15:15;;;;;;;15.23;5.85;;;23.00;50.90;;;;;;6054428;29;20047;-74
2022/10/09 11:18:45;;;;;;;28.83;8.63;;;23.10;50.70;;;;;;6059846;29;20447;-73
2022/10/09 11:21:58;;;;;;;10.32;4.25;;;23.20;50.70;;;;;;6043308;29;20041;-73
2022/10/09 11:25:18;;;;;;;11.20;3.90;;;23.30;50.70;;;;;;6065306;29;20044;-74
2022/10/09 11:28:27;;;;;;;12.23;3.53;;;23.30;50.30;;;;;;6063259;29;20041;-73
2022/10/09 11:31:39;;;;;;;14.82;3.72;;;23.30;50.40;;;;;;6062003;29;20118;-74
2022/10/09 11:35:06;;;;;;;14.82;3.50;;;23.40;50.50;;;;;;6060408;29;20530;-73
2022/10/09 11:38:25;;;;;;;11.38;3.67;;;23.60;50.30;;;;;;6020185;29;20129;-73
2022/10/09 11:41:27;;;;;;;20.88;4.13;;;23.80;49.90;;;;;;6011721;29;20093;-73
2022/10/09 11:44:37;;;;;;;8.23;3.60;;;24.00;49.70;;;;;;6027480;29;20068;-74
2022/10/09 11:47:54;;;;;;;15.27;3.35;;;24.20;49.30;;;;;;6027170;29;20064;-74
2022/10/09 11:51:07;;;;;;;13.57;3.58;;;24.40;49.00;;;;;;6037851;29;20473;-75
2022/10/09 11:54:13;;;;;;;10.70;3.55;;;24.50;48.80;;;;;;6094287;29;20048;-75
2022/10/09 11:57:26;;;;;;;12.20;3.75;;;24.70;48.40;;;;;;6082896;29;20040;-74
2022/10/09 12:00:30;;;;;;;14.73;5.40;;;24.80;48.10;;;;;;6097233;29;20036;-74
2022/10/09 12:03:36;;;;;;;6.88;3.45;;;24.90;47.90;;;;;;6097980;29;20035;-74
2022/10/09 12:06:53;;;;;;;6.63;2.55;;;24.90;47.50;;;;;;6096656;29;20702;-74
2022/10/09 12:10:08;;;;;;;7.13;3.42;;;24.90;47.40;;;;;;6095774;29;20044;-74
2022/10/09 12:13:27;;;;;;;10.52;3.80;;;24.80;47.30;;;;;;6096118;29;20120;-74
2022/10/09 12:16:28;;;;;;;9.85;3.88;;;24.80;47.30;;;;;;6142323;28;20098;-74
2022/10/09 12:19:37;;;;;;;7.53;3.13;;;24.90;47.30;;;;;;6143383;28;20061;-74
2022/10/09 12:22:49;;;;;;;15.20;5.50;;;25.00;47.30;;;;;;6146331;28;20035;-74
2022/10/09 12:25:52;;;;;;;12.32;3.08;;;25.30;46.80;;;;;;6138767;28;20039;-74
2022/10/09 12:29:01;;;;;;;5.15;2.30;;;25.60;46.50;;;;;;6138876;28;20050;-74
2022/10/09 12:32:06;;;;;;;6.47;2.30;;;26.10;45.60;;;;;;6145468;28;20110;-74
2022/10/09 12:35:25;;;;;;;11.00;5.03;;;26.10;44.70;;;;;;6136816;28;20032;-74
2022/10/09 12:38:30;;;;;;;7.15;3.20;;;26.10;44.80;;;;;;6138848;28;20512;-74
2022/10/09 12:41:33;;;;;;;7.20;2.55;;;26.20;44.90;;;;;;6139466;28;20501;-74
2022/10/09 12:44:40;;;;;;;14.98;5.32;;;26.50;44.80;;;;;;6135274;28;20357;-74
2022/10/09 12:47:42;;;;;;;9.07;3.72;;;26.90;44.20;;;;;;6139242;28;20035;-74
2022/10/09 12:50:43;;;;;;;10.32;2.83;;;27.10;43.70;;;;;;6122177;28;20043;-74
2022/10/09 12:53:48;;;;;;;10.43;3.10;;;27.10;43.70;;;;;;6142823;28;20039;-75
2022/10/09 12:56:52;;;;;;;7.40;2.70;;;27.00;43.80;;;;;;6135504;28;20448;-74
2022/10/09 12:59:53;;;;;;;7.00;2.95;;;26.90;44.00;;;;;;6151961;28;20035;-74
2022/10/09 13:02:54;;;;;;;5.53;2.78;;;26.80;44.20;;;;;;6138677;28;20027;-74
2022/10/09 13:05:56;;;;;;;10.00;2.97;;;26.80;44.40;;;;;;6138914;28;20047;-74
2022/10/09 13:09:02;;;;;;;11.35;2.78;;;26.80;44.40;;;;;;6146917;28;20130;-74
2022/10/09 13:12:19;;;;;;;13.43;3.25;;;26.70;44.30;;;;;;6154978;28;20440;-73
2022/10/09 13:15:33;;;;;;;10.32;2.88;;;26.60;44.40;;;;;;6167376;28;20043;-74
2022/10/09 13:18:36;;;;;;;4.10;2.38;;;26.50;44.60;;;;;;6158774;23;20089;-75
2022/10/09 13:21:37;;;;;;;9.20;2.78;;;26.50;44.80;;;;;;6150950;28;20114;-75
2022/10/09 13:24:38;;;;;;;9.15;3.10;;;26.40;44.90;;;;;;6153146;28;20054;-74
2022/10/09 13:27:39;;;;;;;7.20;2.63;;;26.40;45.00;;;;;;6142357;28;20039;-74
2022/10/09 13:30:40;;;;;;;9.98;3.17;;;26.30;44.90;;;;;;6146201;28;20046;-73
2022/10/09 13:33:41;;;;;;;4.82;2.85;;;26.30;45.00;;;;;;6171015;28;20093;-74
2022/10/09 13:36:42;;;;;;;6.35;2.50;;;26.20;45.20;;;;;;6161208;28;20070;-75
2022/10/09 13:39:43;;;;;;;4.80;2.80;;;26.10;45.30;;;;;;6163317;28;20039;-75
2022/10/09 13:42:53;;;;;;;4.53;2.45;;;26.00;45.20;;;;;;6159684;28;20150;-75
2022/10/09 13:45:54;;;;;;;9.68;2.83;;;25.90;45.30;;;;;;6162199;28;20117;-73
2022/10/09 13:48:55;;;;;;;8.80;2.70;;;25.90;45.40;;;;;;6159218;28;20172;-74
2022/10/09 13:51:56;;;;;;;5.93;2.72;;;25.90;45.40;;;;;;6160898;28;20080;-73
2022/10/09 13:54:57;;;;;;;9.27;3.05;;;25.80;45.50;;;;;;6154444;28;20047;-73
2022/10/09 13:57:58;;;;;;;6.57;2.60;;;25.80;45.60;;;;;;6137955;28;20042;-73
2022/10/09 14:00:59;;;;;;;4.78;2.80;;;25.70;45.50;;;;;;6149059;28;20038;-73
2022/10/09 14:04:01;;;;;;;8.55;2.75;;;25.70;45.60;;;;;;6142566;28;20043;-75
2022/10/09 14:07:02;;;;;;;6.18;2.10;;;25.60;45.60;;;;;;6154585;28;20376;-74
2022/10/09 14:10:04;;;;;;;14.93;2.33;;;25.60;45.80;;;;;;6143441;28;20112;-73
2022/10/09 14:13:05;;;;;;;8.73;2.70;;;25.60;45.80;;;;;;6147232;28;20066;-75
2022/10/09 14:16:07;;;;;;;9.90;2.63;;;25.50;45.90;;;;;;6157568;28;20042;-74
2022/10/09 14:19:10;;;;;;;15.80;3.15;;;25.50;46.00;;;;;;6158534;28;20053;-74
2022/10/09 14:22:12;;;;;;;11.20;2.78;;;25.50;46.00;;;;;;6158868;28;20078;-74
2022/10/09 14:25:13;;;;;;;4.85;2.20;;;25.50;46.10;;;;;;6161344;28;20148;-75
2022/10/09 14:28:14;;;;;;;9.10;2.65;;;25.30;46.10;;;;;;6140466;28;20118;-74
2022/10/09 14:31:17;;;;;;;11.48;2.70;;;25.30;46.20;;;;;;6165634;28;20047;-72
2022/10/09 14:34:19;;;;;;;5.75;2.65;;;25.20;46.40;;;;;;6145051;28;20073;-73
2022/10/09 14:37:20;;;;;;;5.80;2.65;;;25.10;46.50;;;;;;6157995;28;20337;-73
2022/10/09 14:40:21;;;;;;;10.48;2.55;;;25.10;46.60;;;;;;6157555;28;20391;-74
2022/10/09 14:43:22;;;;;;;4.70;2.42;;;25.00;46.60;;;;;;6144459;28;20031;-75
2022/10/09 14:46:25;;;;;;;7.65;2.70;;;25.00;46.70;;;;;;6155803;28;20581;-73
2022/10/09 14:49:26;;;;;;;4.70;2.13;;;24.90;46.80;;;;;;6133549;28;20042;-73
2022/10/09 14:52:27;;;;;;;4.15;2.60;;;24.90;46.90;;;;;;6130026;28;20035;-74
2022/10/09 14:55:28;;;;;;;6.30;2.35;;;24.90;46.90;;;;;;6160953;28;20491;-74
2022/10/09 14:58:31;;;;;;;11.45;3.38;;;24.80;46.90;;;;;;6162221;28;20098;-75
2022/10/09 15:01:33;;;;;;;5.57;2.58;;;24.80;47.10;;;;;;6154957;28;20062;-74
2022/10/09 15:04:34;;;;;;;14.80;3.22;;;24.70;47.20;;;;;;6164195;28;20488;-74
2022/10/09 15:07:36;;;;;;;6.82;2.80;;;24.70;47.30;;;;;;6164531;28;20053;-76
2022/10/09 15:10:37;;;;;;;5.43;2.63;;;24.70;47.30;;;;;;6148307;28;20050;-76
2022/10/09 15:13:39;;;;;;;6.32;2.75;;;24.70;47.20;;;;;;6169753;28;20459;-77
2022/10/09 15:16:40;;;;;;;8.70;2.53;;;24.70;47.30;;;;;;6168467;28;20055;-76
2022/10/09 15:19:41;;;;;;;8.70;2.58;;;24.70;47.50;;;;;;6152519;28;20130;-76
2022/10/09 15:22:43;;;;;;;7.55;2.63;;;24.60;47.70;;;;;;6166836;28;20086;-76
2022/10/09 15:25:53;;;;;;;10.32;2.45;;;24.60;47.70;;;;;;6163332;28;20561;-77
2022/10/09 15:28:55;;;;;;;9.57;2.30;;;24.60;47.60;;;;;;6156364;28;20042;-78
2022/10/09 15:31:57;;;;;;;5.78;2.05;;;24.70;47.60;;;;;;6135974;28;20089;-78
2022/10/09 15:34:58;;;;;;;3.70;2.20;;;24.70;47.60;;;;;;6166149;28;20101;-77
2022/10/09 15:37:59;;;;;;;6.93;3.13;;;24.70;47.60;;;;;;6147137;28;20039;-76
2022/10/09 15:41:00;;;;;;;13.82;3.55;;;24.60;47.70;;;;;;6146891;28;20133;-79
2022/10/09 15:44:04;;;;;;;16.02;7.15;;;24.60;48.00;;;;;;6169267;28;20065;-81
2022/10/09 15:47:05;;;;;;;21.77;10.02;;;24.50;48.20;;;;;;6144143;28;20058;-80
2022/10/09 15:50:07;;;;;;;11.57;4.40;;;24.50;48.20;;;;;;6149615;28;20042;-80
2022/10/09 15:53:13;;;;;;;12.85;3.97;;;24.50;48.40;;;;;;6123648;28;20031;-76
2022/10/09 15:56:17;;;;;;;10.80;3.72;;;24.40;48.40;;;;;;6148703;28;20479;-77
2022/10/09 15:59:19;;;;;;;7.38;3.00;;;24.40;48.40;;;;;;6167515;28;20463;-77